Kingston, New Jersey
Current Conditions -  °F | °C
As of 6:09 PM on Saturday 20 Dec 2014 (Local Time) from KTTN Reporting Station
Overcast Overcast  
Wind Chill: 30°   Ceiling: 3100
Heat Index: 30°   Visibility: 10mi
Dew Point: 20°   Wind: 3mph
Humidity: 66%   Direction: 60°ENE
Pressure: 30.28"   Gusts: NA
Location:  40.38°N, 74.61°W
Report Text: KTTN 202309Z 06003KT 10SM OVC031 M01/M07 A3028 RMK AO2 T10111067
Loading
Personal Weather Stations






























Interactive Weather Map New forecast layout! Learn more

10-Day Weather Forecast

Advertisements
Track Severe Weather on mobile